Axtel, Kentucky
Current Conditions -  °F | °C
As of 12:58 AM on Sunday 23 Nov 2014 (Local Time) from KFTK Reporting Station
Overcast Overcast  
Wind Chill: 51°   Ceiling: 7500
Heat Index: 51°   Visibility: 10mi
Dew Point: 37°   Wind: 10mph
Humidity: 59%   Direction: 160°SSE
Pressure: 30.02"   Gusts: NA
Location:  37.7834°N, 86.4612°W
Report Text: KFTK 230658Z AUTO 16009KT 10SM OVC075 11/03 A3002 RMK AO2 SLP167 T01060028
Loading
Personal Weather Stations






























Interactive Weather Map New forecast layout! Learn more

10-Day Weather Forecast

Advertisements
Track Severe Weather on mobile